createdAt,value
2022-08-10T00:00:39.731Z,21.42
2022-08-10T00:03:10.037Z,21.43
2022-08-10T00:05:43.022Z,21.39
2022-08-10T00:08:11.579Z,21.48
2022-08-10T00:10:50.858Z,21.47
2022-08-10T00:13:18.530Z,21.34
2022-08-10T00:15:53.933Z,21.31
2022-08-10T00:18:28.901Z,21.33
2022-08-10T00:21:04.735Z,21.29
2022-08-10T00:23:32.354Z,21.36
2022-08-10T00:26:00.179Z,21.42
2022-08-10T00:28:27.810Z,21.33
2022-08-10T00:30:55.539Z,21.39
2022-08-10T00:33:24.578Z,21.30
2022-08-10T00:35:52.720Z,21.26
2022-08-10T00:38:20.608Z,21.35
2022-08-10T00:40:48.353Z,21.16
2022-08-10T00:43:23.579Z,21.24
2022-08-10T00:45:58.761Z,21.09
2022-08-10T00:48:30.001Z,21.18
2022-08-10T00:50:59.086Z,21.05
2022-08-10T00:53:27.262Z,21.09
2022-08-10T00:57:12.868Z,20.98
2022-08-10T00:58:43.647Z,20.87
2022-08-10T01:02:08.997Z,20.96
2022-08-10T01:04:36.334Z,20.98
2022-08-10T01:07:11.767Z,20.89
2022-08-10T01:09:55.657Z,20.82
2022-08-10T01:12:40.723Z,20.76
2022-08-10T01:15:14.649Z,20.78
2022-08-10T01:17:51.461Z,20.85
2022-08-10T01:20:27.709Z,20.70
2022-08-10T01:23:30.840Z,20.68
2022-08-10T01:26:33.363Z,20.73
2022-08-10T01:29:18.447Z,20.67
2022-08-10T01:31:51.422Z,20.63
2022-08-10T01:34:22.100Z,20.66
2022-08-10T01:36:53.066Z,20.56
2022-08-10T01:39:24.211Z,20.48
2022-08-10T01:41:55.075Z,20.65
2022-08-10T01:44:28.597Z,20.53
2022-08-10T01:47:22.616Z,20.49
2022-08-10T01:49:54.394Z,20.47
2022-08-10T01:52:23.666Z,20.54
2022-08-10T01:54:53.059Z,20.44
2022-08-10T01:57:25.001Z,20.32
2022-08-10T01:59:58.541Z,20.38
2022-08-10T02:02:31.814Z,20.41
2022-08-10T02:05:00.783Z,20.30
2022-08-10T02:07:29.921Z,20.25
2022-08-10T02:10:00.056Z,20.22
2022-08-10T02:12:29.924Z,20.25
2022-08-10T02:15:00.326Z,20.22
2022-08-10T02:17:59.904Z,20.20
2022-08-10T02:20:21.287Z,20.14
2022-08-10T02:22:52.388Z,20.19
2022-08-10T02:25:42.040Z,20.11
2022-08-10T02:28:09.938Z,20.15
2022-08-10T02:30:38.315Z,20.12
2022-08-10T02:33:06.778Z,20.11
2022-08-10T02:35:54.561Z,20.03
2022-08-10T02:38:59.181Z,20.06
2022-08-10T02:45:03.529Z,20.04
2022-08-10T02:45:21.246Z,20.06
2022-08-10T02:46:59.858Z,20.07
2022-08-10T02:49:30.667Z,19.92
2022-08-10T02:52:06.322Z,19.90
2022-08-10T02:54:47.447Z,19.84
2022-08-10T02:57:18.599Z,19.79
2022-08-10T02:59:49.481Z,19.84
2022-08-10T03:02:23.167Z,19.83
2022-08-10T03:04:57.777Z,19.71
2022-08-10T03:07:43.416Z,19.79
2022-08-10T03:10:15.054Z,19.72
2022-08-10T03:12:45.353Z,19.69
2022-08-10T03:15:15.998Z,19.66
2022-08-10T03:17:57.464Z,19.67
2022-08-10T03:20:38.312Z,19.71
2022-08-10T03:23:12.396Z,19.61
2022-08-10T03:25:53.342Z,19.55
2022-08-10T03:28:25.016Z,19.57
2022-08-10T03:30:53.120Z,19.59
2022-08-10T03:33:22.296Z,19.61
2022-08-10T03:36:40.341Z,19.50
2022-08-10T03:38:40.679Z,19.48
2022-08-10T03:41:11.387Z,19.43
2022-08-10T03:43:45.374Z,19.36
2022-08-10T03:46:14.377Z,19.37
2022-08-10T03:48:49.177Z,19.34
2022-08-10T03:51:19.667Z,19.43
2022-08-10T03:54:04.974Z,19.33
2022-08-10T03:56:35.911Z,19.28
2022-08-10T03:59:03.717Z,19.31
2022-08-10T04:02:43.271Z,19.27
2022-08-10T04:04:24.239Z,19.38
2022-08-10T04:06:54.758Z,19.31
2022-08-10T04:09:42.995Z,19.33
2022-08-10T04:12:14.108Z,19.35
2022-08-10T04:14:49.603Z,19.34
2022-08-10T04:17:56.261Z,19.33
2022-08-10T04:20:10.050Z,19.37
2022-08-10T04:22:37.979Z,19.39
2022-08-10T04:25:08.318Z,19.40
2022-08-10T04:27:36.053Z,19.42
2022-08-10T04:30:04.051Z,19.46
2022-08-10T04:32:32.387Z,19.46
2022-08-10T04:35:00.507Z,19.45
2022-08-10T04:37:28.406Z,19.51
2022-08-10T04:39:56.509Z,19.44
2022-08-10T04:42:25.534Z,19.49
2022-08-10T04:44:53.522Z,19.46
2022-08-10T04:47:57.691Z,19.45
2022-08-10T04:50:09.275Z,19.51
2022-08-10T04:52:37.500Z,19.47
2022-08-10T04:55:06.216Z,19.47
2022-08-10T04:57:35.212Z,19.53
2022-08-10T05:00:03.104Z,19.53
2022-08-10T05:02:44.884Z,19.49
2022-08-10T05:05:12.883Z,19.59
2022-08-10T05:07:53.896Z,19.72
2022-08-10T05:10:24.695Z,19.82
2022-08-10T05:12:54.384Z,19.86
2022-08-10T05:15:23.793Z,19.89
2022-08-10T05:18:06.905Z,20.00
2022-08-10T05:20:39.244Z,20.08
2022-08-10T05:23:07.389Z,20.18
2022-08-10T05:25:37.314Z,20.20
2022-08-10T05:28:07.367Z,20.26
2022-08-10T05:30:35.394Z,20.28
2022-08-10T05:33:08.031Z,20.37
2022-08-10T05:35:55.366Z,20.37
2022-08-10T05:38:27.452Z,20.39
2022-08-10T05:40:55.305Z,20.37
2022-08-10T05:43:25.034Z,20.51
2022-08-10T05:46:19.997Z,20.53
2022-08-10T05:48:59.489Z,20.75
2022-08-10T05:51:28.942Z,20.90
2022-08-10T05:54:01.985Z,20.96
2022-08-10T05:56:53.530Z,20.97
2022-08-10T06:00:11.040Z,21.00
2022-08-10T06:02:31.749Z,21.00
2022-08-10T06:05:06.064Z,21.10
2022-08-10T06:07:34.042Z,21.33
2022-08-10T06:10:02.361Z,21.44
2022-08-10T06:12:35.145Z,21.54
2022-08-10T06:15:10.330Z,21.75
2022-08-10T06:17:59.131Z,21.56
2022-08-10T06:20:35.419Z,21.55
2022-08-10T06:23:05.146Z,21.64
2022-08-10T06:26:10.325Z,21.78
2022-08-10T06:28:21.952Z,21.92
2022-08-10T06:30:51.706Z,22.11
2022-08-10T06:33:20.293Z,22.17
2022-08-10T06:35:49.901Z,22.43
2022-08-10T06:38:18.257Z,22.50
2022-08-10T06:40:48.785Z,22.38
2022-08-10T06:43:18.532Z,22.54
2022-08-10T06:46:06.961Z,22.67
2022-08-10T06:48:41.320Z,22.51
2022-08-10T06:51:23.471Z,22.76
2022-08-10T06:53:55.347Z,22.75
2022-08-10T06:56:36.745Z,22.84
2022-08-10T06:59:17.837Z,22.76
2022-08-10T07:01:51.940Z,23.01
2022-08-10T07:04:32.395Z,23.19
2022-08-10T07:07:03.141Z,23.47
2022-08-10T07:09:33.506Z,23.33
2022-08-10T07:12:08.393Z,23.70
2022-08-10T07:14:38.399Z,23.96
2022-08-10T07:17:06.799Z,24.13
2022-08-10T07:19:36.018Z,24.35
2022-08-10T07:23:11.067Z,24.43
2022-08-10T07:25:08.551Z,24.65
2022-08-10T07:27:40.653Z,24.76
2022-08-10T07:30:28.190Z,24.48
2022-08-10T07:32:56.058Z,24.74
2022-08-10T07:35:25.499Z,24.99
2022-08-10T07:37:53.997Z,25.22
2022-08-10T07:40:23.481Z,25.33
2022-08-10T07:42:53.824Z,25.53
2022-08-10T07:45:21.610Z,25.64
2022-08-10T07:47:55.046Z,25.51
2022-08-10T07:50:26.460Z,25.75
2022-08-10T07:52:56.588Z,26.03
2022-08-10T07:56:01.457Z,26.02
2022-08-10T07:58:12.791Z,26.19
2022-08-10T08:00:41.300Z,26.33
2022-08-10T08:03:10.730Z,26.43
2022-08-10T08:05:58.846Z,26.56
2022-08-10T08:08:30.004Z,26.66
2022-08-10T08:10:58.990Z,26.79
2022-08-10T08:13:27.735Z,26.75
2022-08-10T08:16:17.053Z,26.79
2022-08-10T08:19:03.909Z,26.85
2022-08-10T08:24:07.661Z,26.96
2022-08-10T08:24:33.420Z,27.15
2022-08-10T08:27:03.371Z,27.02
2022-08-10T08:29:32.980Z,27.14
2022-08-10T08:32:02.543Z,27.42
2022-08-10T08:34:31.742Z,27.38
2022-08-10T08:37:02.104Z,27.40
2022-08-10T08:39:31.771Z,27.35
2022-08-10T08:42:27.211Z,27.58
2022-08-10T08:45:07.273Z,27.76
2022-08-10T08:48:05.464Z,28.02
2022-08-10T08:50:41.751Z,28.29
2022-08-10T08:53:23.743Z,28.55
2022-08-10T08:56:16.986Z,28.53
2022-08-10T08:58:58.467Z,29.08
2022-08-10T09:01:40.973Z,30.32
2022-08-10T09:04:19.841Z,31.71
2022-08-10T09:07:03.541Z,32.37
2022-08-10T09:09:48.876Z,32.35
2022-08-10T09:12:51.426Z,31.84
2022-08-10T09:15:41.021Z,30.32
2022-08-10T09:18:13.984Z,30.15
2022-08-10T09:20:43.940Z,30.10
2022-08-10T09:23:19.259Z,30.00
2022-08-10T09:25:54.074Z,30.05
2022-08-10T09:28:26.724Z,30.10
2022-08-10T09:36:23.685Z,30.20
2022-08-10T09:36:45.788Z,30.07
2022-08-10T09:40:08.480Z,30.25
2022-08-10T09:42:14.687Z,30.05
2022-08-10T09:44:57.504Z,30.38
2022-08-10T09:48:02.244Z,30.70
2022-08-10T09:50:26.756Z,30.73
2022-08-10T09:53:07.077Z,30.95
2022-08-10T09:56:17.325Z,30.97
2022-08-10T09:58:37.695Z,30.88
2022-08-10T10:01:56.425Z,30.45
2022-08-10T10:04:05.226Z,29.77
2022-08-10T10:06:37.982Z,29.47
2022-08-10T10:09:11.054Z,28.60
2022-08-10T10:11:49.398Z,29.31
2022-08-10T10:14:26.943Z,29.75
2022-08-10T10:17:03.071Z,30.34
2022-08-10T10:19:41.066Z,30.06
2022-08-10T10:22:22.031Z,29.84
2022-08-10T10:24:54.202Z,29.57
2022-08-10T10:27:28.431Z,29.71
2022-08-10T10:30:00.974Z,29.71
2022-08-10T10:32:39.738Z,29.53
2022-08-10T10:35:17.720Z,29.19
2022-08-10T10:38:00.804Z,29.16
2022-08-10T10:40:35.308Z,29.15
2022-08-10T10:43:08.945Z,29.61
2022-08-10T10:45:55.361Z,29.65
2022-08-10T10:48:29.147Z,29.58
2022-08-10T10:51:05.956Z,29.80
2022-08-10T10:53:44.042Z,30.22
2022-08-10T10:56:19.303Z,30.50
2022-08-10T10:58:56.139Z,30.81
2022-08-10T11:01:36.281Z,30.80
2022-08-10T11:04:12.579Z,29.94
2022-08-10T11:06:51.393Z,29.86
2022-08-10T11:10:05.228Z,29.64
2022-08-10T11:12:18.244Z,29.41
2022-08-10T11:14:53.998Z,29.27
2022-08-10T11:17:28.428Z,29.25
2022-08-10T11:20:07.140Z,29.19
2022-08-10T11:22:37.671Z,29.19
2022-08-10T11:25:10.975Z,29.10
2022-08-10T11:27:44.997Z,29.02
2022-08-10T11:30:15.011Z,29.09
2022-08-10T11:32:52.512Z,29.08
2022-08-10T11:35:27.333Z,28.96
2022-08-10T11:38:32.957Z,29.15
2022-08-10T11:42:05.275Z,29.04
2022-08-10T11:43:55.520Z,29.12
2022-08-10T11:46:28.858Z,28.92
2022-08-10T11:49:05.236Z,28.90
2022-08-10T11:51:41.567Z,28.85
2022-08-10T11:54:33.962Z,28.81
2022-08-10T11:57:02.945Z,28.80
2022-08-10T11:59:51.385Z,28.98
2022-08-10T12:02:30.609Z,29.16
2022-08-10T12:05:02.948Z,29.14
2022-08-10T12:10:04.072Z,29.18
2022-08-10T12:10:21.509Z,29.16
2022-08-10T12:12:54.578Z,29.29
2022-08-10T12:15:26.104Z,29.42
2022-08-10T12:17:56.845Z,29.33
2022-08-10T12:20:30.363Z,29.62
2022-08-10T12:23:01.680Z,29.73
2022-08-10T12:25:56.489Z,29.51
2022-08-10T12:28:33.268Z,29.51
2022-08-10T12:31:13.612Z,29.40
2022-08-10T12:34:02.023Z,29.38
2022-08-10T12:36:35.013Z,29.34
2022-08-10T12:39:05.654Z,29.29
2022-08-10T12:41:44.237Z,29.34
2022-08-10T12:44:15.218Z,29.31
2022-08-10T12:46:51.147Z,29.34
2022-08-10T12:49:21.606Z,29.39
2022-08-10T12:51:54.795Z,29.28
2022-08-10T12:54:32.495Z,29.23
2022-08-10T12:57:03.576Z,29.20
2022-08-10T12:59:32.872Z,29.26
2022-08-10T13:02:13.634Z,29.49
2022-08-10T13:04:44.058Z,29.54
2022-08-10T13:08:25.688Z,29.86
2022-08-10T13:10:03.718Z,30.07
2022-08-10T13:12:38.956Z,29.99
2022-08-10T13:15:45.714Z,30.03
2022-08-10T13:18:04.576Z,30.18
2022-08-10T13:20:35.604Z,30.47
2022-08-10T13:23:12.745Z,30.72
2022-08-10T13:25:45.589Z,30.47
2022-08-10T13:28:37.716Z,30.29
2022-08-10T13:31:07.935Z,30.24
2022-08-10T13:34:39.192Z,30.41
2022-08-10T13:36:32.653Z,30.17
2022-08-10T13:39:02.222Z,30.15
2022-08-10T13:41:31.878Z,30.25
2022-08-10T13:44:00.837Z,30.41
2022-08-10T13:46:29.334Z,30.54
2022-08-10T13:48:59.231Z,30.44
2022-08-10T13:51:56.594Z,30.45
2022-08-10T13:54:21.462Z,30.43
2022-08-10T13:56:50.051Z,30.81
2022-08-10T13:59:18.694Z,30.44
2022-08-10T14:01:50.088Z,30.63
2022-08-10T14:04:18.671Z,30.73
2022-08-10T14:06:51.435Z,30.93
2022-08-10T14:09:19.493Z,31.20
2022-08-10T14:11:49.871Z,31.28
2022-08-10T14:14:21.018Z,31.06
2022-08-10T14:16:49.199Z,31.23
2022-08-10T14:19:18.790Z,31.18
2022-08-10T14:21:47.833Z,30.99
2022-08-10T14:24:21.159Z,30.86
2022-08-10T14:26:50.933Z,30.82
2022-08-10T14:29:20.129Z,30.73
2022-08-10T14:32:01.157Z,30.43
2022-08-10T14:36:16.472Z,30.36
2022-08-10T14:37:22.412Z,30.29
2022-08-10T14:39:56.559Z,29.88
2022-08-10T14:42:30.728Z,30.14
2022-08-10T14:45:07.235Z,30.40
2022-08-10T14:47:53.657Z,30.72
2022-08-10T14:50:32.239Z,30.84
2022-08-10T14:53:01.307Z,30.70
2022-08-10T14:55:29.255Z,30.55
2022-08-10T14:58:17.131Z,30.39
2022-08-10T15:00:46.614Z,30.10
2022-08-10T15:03:59.310Z,29.75
2022-08-10T15:06:09.184Z,29.99
2022-08-10T15:08:47.251Z,30.19
2022-08-10T15:12:13.045Z,30.28
2022-08-10T15:14:15.099Z,30.33
2022-08-10T15:16:56.243Z,30.43
2022-08-10T15:20:01.184Z,30.69
2022-08-10T15:22:36.432Z,30.59
2022-08-10T15:25:06.812Z,30.35
2022-08-10T15:27:53.895Z,30.19
2022-08-10T15:30:31.019Z,30.00
2022-08-10T15:33:21.674Z,29.55
2022-08-10T15:36:25.282Z,29.63
2022-08-10T15:39:00.635Z,29.87
2022-08-10T15:41:58.459Z,30.18
2022-08-10T15:44:36.580Z,30.29
2022-08-10T15:47:07.571Z,30.50
2022-08-10T15:49:38.714Z,30.57
2022-08-10T15:52:14.728Z,30.30
2022-08-10T15:55:42.726Z,30.34
2022-08-10T15:58:37.614Z,30.30
2022-08-10T16:02:13.726Z,30.20
2022-08-10T16:04:08.550Z,30.19
2022-08-10T16:06:40.960Z,30.19
2022-08-10T16:10:22.360Z,30.03
2022-08-10T16:12:05.521Z,30.20
2022-08-10T16:14:40.473Z,30.04
2022-08-10T16:17:10.722Z,29.94
2022-08-10T16:19:47.656Z,29.84
2022-08-10T16:22:34.133Z,29.73
2022-08-10T16:25:05.050Z,29.77
2022-08-10T16:27:34.219Z,29.86
2022-08-10T16:30:04.509Z,29.89
2022-08-10T16:32:33.985Z,30.00
2022-08-10T16:35:09.020Z,30.09
2022-08-10T16:37:57.124Z,30.07
2022-08-10T16:40:28.541Z,30.19
2022-08-10T16:42:56.775Z,30.07
2022-08-10T16:45:31.150Z,29.88
2022-08-10T16:47:58.932Z,29.79
2022-08-10T16:50:29.289Z,29.58
2022-08-10T16:53:01.817Z,29.37
2022-08-10T16:55:49.943Z,29.13
2022-08-10T16:58:29.162Z,29.14
2022-08-10T17:01:02.231Z,29.14
2022-08-10T17:04:06.407Z,29.22
2022-08-10T17:06:32.951Z,29.14
2022-08-10T17:09:02.324Z,29.02
2022-08-10T17:11:32.656Z,28.93
2022-08-10T17:14:02.387Z,28.86
2022-08-10T17:16:35.117Z,28.87
2022-08-10T17:19:04.301Z,28.80
2022-08-10T17:21:39.750Z,28.82
2022-08-10T17:24:20.853Z,28.62
2022-08-10T17:26:49.646Z,28.58
2022-08-10T17:29:57.941Z,28.46
2022-08-10T17:32:08.064Z,28.52
2022-08-10T17:34:39.989Z,28.53
2022-08-10T17:37:16.955Z,28.61
2022-08-10T17:39:49.916Z,28.34
2022-08-10T17:42:21.776Z,28.36
2022-08-10T17:44:50.849Z,28.31
2022-08-10T17:47:19.006Z,28.34
2022-08-10T17:49:47.339Z,28.24
2022-08-10T17:52:23.485Z,28.19
2022-08-10T17:54:55.572Z,28.16
2022-08-10T17:57:24.117Z,28.15
2022-08-10T17:59:52.918Z,28.09
2022-08-10T18:02:25.372Z,27.97
2022-08-10T18:04:54.629Z,28.01
2022-08-10T18:07:30.777Z,27.88
2022-08-10T18:09:58.830Z,27.87
2022-08-10T18:12:34.717Z,27.95
2022-08-10T18:15:12.307Z,27.93
2022-08-10T18:17:44.786Z,27.93
2022-08-10T18:20:12.767Z,27.80
2022-08-10T18:22:44.724Z,27.70
2022-08-10T18:25:18.759Z,27.66
2022-08-10T18:28:04.373Z,27.65
2022-08-10T18:30:36.312Z,27.62
2022-08-10T18:33:05.855Z,27.64
2022-08-10T18:35:34.958Z,27.39
2022-08-10T18:38:05.078Z,27.57
2022-08-10T18:40:36.136Z,27.58
2022-08-10T18:44:04.563Z,27.51
2022-08-10T18:45:56.998Z,27.51
2022-08-10T18:48:29.272Z,27.49
2022-08-10T18:50:59.326Z,27.48
2022-08-10T18:53:48.230Z,27.48
2022-08-10T18:56:26.303Z,27.52
2022-08-10T18:59:07.420Z,27.40
2022-08-10T19:01:49.876Z,27.32
2022-08-10T19:04:27.524Z,27.30
2022-08-10T19:07:19.871Z,27.01
2022-08-10T19:09:55.947Z,26.61
2022-08-10T19:12:40.655Z,26.38
2022-08-10T19:15:24.756Z,26.17
2022-08-10T19:18:05.645Z,25.99
2022-08-10T19:20:38.679Z,26.00
2022-08-10T19:23:16.704Z,25.92
2022-08-10T19:26:36.532Z,25.90
2022-08-10T19:28:42.395Z,25.90
2022-08-10T19:31:13.791Z,25.89
2022-08-10T19:33:46.066Z,25.81
2022-08-10T19:36:17.619Z,25.76
2022-08-10T19:38:50.720Z,25.81
2022-08-10T19:41:32.298Z,25.71
2022-08-10T19:44:04.960Z,25.59
2022-08-10T19:46:38.734Z,25.57
2022-08-10T19:49:18.159Z,25.55
2022-08-10T19:52:10.778Z,25.50
2022-08-10T19:54:45.954Z,25.36
2022-08-10T19:57:22.837Z,25.42
2022-08-10T20:00:16.379Z,25.34
2022-08-10T20:02:50.421Z,25.25
2022-08-10T20:05:23.563Z,25.16
2022-08-10T20:07:55.265Z,25.14
2022-08-10T20:10:28.112Z,25.09
2022-08-10T20:13:03.927Z,25.02
2022-08-10T20:15:41.870Z,25.06
2022-08-10T20:18:14.191Z,24.98
2022-08-10T20:20:43.426Z,24.86
2022-08-10T20:23:15.510Z,24.96
2022-08-10T20:25:46.230Z,24.83
2022-08-10T20:28:20.050Z,24.77
2022-08-10T20:30:51.894Z,24.68
2022-08-10T20:33:27.686Z,24.68
2022-08-10T20:36:01.680Z,24.69
2022-08-10T20:38:34.706Z,24.49
2022-08-10T20:41:17.510Z,24.46
2022-08-10T20:43:57.710Z,24.38
2022-08-10T20:46:27.995Z,24.39
2022-08-10T20:49:00.125Z,24.34
2022-08-10T20:51:58.066Z,24.19
2022-08-10T20:54:20.003Z,24.07
2022-08-10T20:56:58.759Z,24.07
2022-08-10T21:00:03.918Z,24.07
2022-08-10T21:02:52.237Z,24.02
2022-08-10T21:05:22.678Z,23.89
2022-08-10T21:08:04.101Z,23.82
2022-08-10T21:10:41.903Z,23.79
2022-08-10T21:13:21.676Z,23.74
2022-08-10T21:16:02.476Z,23.70
2022-08-10T21:18:54.038Z,23.63
2022-08-10T21:21:41.948Z,23.60
2022-08-10T21:24:13.247Z,23.51
2022-08-10T21:26:48.999Z,23.49
2022-08-10T21:29:37.759Z,23.46
2022-08-10T21:32:18.412Z,23.43
2022-08-10T21:35:01.217Z,23.42
2022-08-10T21:37:39.737Z,23.40
2022-08-10T21:40:35.165Z,23.42
2022-08-10T21:43:44.745Z,23.22
2022-08-10T21:46:37.493Z,23.23
2022-08-10T21:49:36.881Z,23.32
2022-08-10T21:52:28.168Z,23.21
2022-08-10T21:55:19.519Z,23.27
2022-08-10T21:58:08.110Z,23.15
2022-08-10T22:00:56.610Z,23.10
2022-08-10T22:03:42.350Z,23.06
2022-08-10T22:06:31.319Z,22.90
2022-08-10T22:09:19.761Z,22.90
2022-08-10T22:12:24.697Z,22.96
2022-08-10T22:15:23.211Z,22.85
2022-08-10T22:18:08.631Z,22.76
2022-08-10T22:20:55.060Z,22.79
2022-08-10T22:23:57.511Z,22.86
2022-08-10T22:26:56.557Z,22.75
2022-08-10T22:29:50.854Z,22.66
2022-08-10T22:32:45.292Z,22.68
2022-08-10T22:35:49.812Z,22.63
2022-08-10T22:38:38.652Z,22.63
2022-08-10T22:41:32.561Z,22.55
2022-08-10T22:44:19.777Z,22.48
2022-08-10T22:47:05.760Z,22.44
2022-08-10T22:49:32.466Z,22.43
2022-08-10T22:52:05.179Z,22.45
2022-08-10T22:54:52.665Z,22.47
2022-08-10T22:57:39.402Z,22.46
2022-08-10T23:00:14.305Z,22.47
2022-08-10T23:02:47.334Z,22.45
2022-08-10T23:05:17.011Z,22.38
2022-08-10T23:07:48.867Z,22.46
2022-08-10T23:10:20.035Z,22.42
2022-08-10T23:12:52.143Z,22.39
2022-08-10T23:15:41.481Z,22.32
2022-08-10T23:18:29.482Z,22.31
2022-08-10T23:20:58.245Z,22.30
2022-08-10T23:23:28.651Z,22.32
2022-08-10T23:25:58.383Z,22.26
2022-08-10T23:28:58.342Z,22.22
2022-08-10T23:32:01.036Z,22.13
2022-08-10T23:34:05.958Z,22.24
2022-08-10T23:36:35.706Z,22.21
2022-08-10T23:39:26.488Z,22.17
2022-08-10T23:41:56.203Z,22.21
2022-08-10T23:44:25.732Z,22.33
2022-08-10T23:46:53.764Z,22.28
2022-08-10T23:49:24.288Z,22.16
2022-08-10T23:51:55.159Z,22.10
2022-08-10T23:54:25.306Z,22.22
2022-08-10T23:56:56.072Z,22.23
2022-08-10T23:59:26.190Z,22.11
